Terminal Aerodrome Forecast
Issued by NWS

Home | Current Version | Previous Version | Text Only | Print | Product List | Glossary On
Versions: 1 2 3 4 5 6 7 8 9 10 11 12 13 14 15 16 17 18 19 20 21 22
000
FTUS42 KFFC 241735
TAFRYY
TAF
KRYY 241735Z 2418/2518 14012G18KT P6SM SCT050
     FM250000 12006KT P6SM FEW060
     FM250800 12005KT P6SM BKN012
     FM251100 12005KT P6SM BKN007
     FM251400 13005KT P6SM OVC014=

USA.gov is the U.S. government's official web portal to all federal, state and local government web resources and services.